Whitney, Pennsylvania
Current Conditions -  °F | °C
As of 2:50 PM on Sunday 23 Nov 2014 (Local Time) from KLBE Reporting Station
Clear Clear  
Wind Chill: 64°   Ceiling: Unl
Heat Index: 64°   Visibility: 10mi
Dew Point: 41°   Wind: 17mph
Humidity: 42%   Direction: 150°SSE
Pressure: 29.94"   Gusts: NA
Location:  40.25°N, 79.41°W
Report Text: KLBE 231950Z 15015KT 10SM SKC 18/05 A2994
Loading
Personal Weather Stations






























Interactive Weather Map New forecast layout! Learn more

10-Day Weather Forecast

Advertisements
Track Severe Weather on mobile